sensor_id;sensor_type;location;lat;lon;timestamp;P1;durP1;ratioP1;P2;durP2;ratioP2
29206;SDS011;16247;50.840;4.382;2023-04-03T05:36:17;14.63;;;9.80;;
29206;SDS011;16247;50.840;4.382;2023-04-03T05:41:18;15.85;;;9.77;;
29206;SDS011;16247;50.840;4.382;2023-04-03T05:43:46;14.68;;;9.38;;
29206;SDS011;16247;50.840;4.382;2023-04-03T05:46:41;12.88;;;8.98;;
29206;SDS011;16247;50.840;4.382;2023-04-03T05:49:22;15.07;;;9.98;;
29206;SDS011;16247;50.840;4.382;2023-04-03T05:52:30;16.88;;;10.63;;
29206;SDS011;16247;50.840;4.382;2023-04-03T05:55:02;13.63;;;9.82;;
29206;SDS011;16247;50.840;4.382;2023-04-03T05:57:35;15.85;;;9.93;;
29206;SDS011;16247;50.840;4.382;2023-04-03T06:00:12;16.42;;;10.73;;
29206;SDS011;16247;50.840;4.382;2023-04-03T06:02:44;17.38;;;10.43;;
29206;SDS011;16247;50.840;4.382;2023-04-03T06:05:15;17.13;;;10.18;;
29206;SDS011;16247;50.840;4.382;2023-04-03T06:07:42;18.40;;;10.65;;
29206;SDS011;16247;50.840;4.382;2023-04-03T06:10:10;17.23;;;11.10;;
29206;SDS011;16247;50.840;4.382;2023-04-03T06:12:40;18.80;;;11.45;;
29206;SDS011;16247;50.840;4.382;2023-04-03T06:15:07;14.95;;;10.80;;
29206;SDS011;16247;50.840;4.382;2023-04-03T06:17:38;18.65;;;11.10;;
29206;SDS011;16247;50.840;4.382;2023-04-03T06:20:05;17.92;;;10.77;;
29206;SDS011;16247;50.840;4.382;2023-04-03T06:22:33;20.27;;;11.32;;
29206;SDS011;16247;50.840;4.382;2023-04-03T06:28:33;14.65;;;10.70;;
29206;SDS011;16247;50.840;4.382;2023-04-03T06:31:27;16.15;;;10.43;;
29206;SDS011;16247;50.840;4.382;2023-04-03T06:34:23;16.67;;;9.73;;
29206;SDS011;16247;50.840;4.382;2023-04-03T06:37:18;17.45;;;11.82;;
29206;SDS011;16247;50.840;4.382;2023-04-03T06:40:06;15.35;;;10.40;;
29206;SDS011;16247;50.840;4.382;2023-04-03T06:42:52;15.20;;;10.07;;
29206;SDS011;16247;50.840;4.382;2023-04-03T06:45:45;15.95;;;11.07;;
29206;SDS011;16247;50.840;4.382;2023-04-03T06:48:28;16.17;;;9.85;;
29206;SDS011;16247;50.840;4.382;2023-04-03T06:51:27;17.38;;;10.85;;
29206;SDS011;16247;50.840;4.382;2023-04-03T06:54:29;15.65;;;10.27;;
29206;SDS011;16247;50.840;4.382;2023-04-03T06:57:07;16.50;;;10.65;;
29206;SDS011;16247;50.840;4.382;2023-04-03T07:02:14;19.45;;;11.10;;
29206;SDS011;16247;50.840;4.382;2023-04-03T07:04:45;21.23;;;11.88;;
29206;SDS011;16247;50.840;4.382;2023-04-03T07:07:54;14.68;;;11.15;;
29206;SDS011;16247;50.840;4.382;2023-04-03T07:10:27;14.48;;;11.35;;
29206;SDS011;16247;50.840;4.382;2023-04-03T07:12:56;21.52;;;10.93;;
29206;SDS011;16247;50.840;4.382;2023-04-03T07:15:27;15.60;;;11.18;;
29206;SDS011;16247;50.840;4.382;2023-04-03T07:17:53;15.43;;;11.52;;
29206;SDS011;16247;50.840;4.382;2023-04-03T07:20:38;18.02;;;11.10;;
29206;SDS011;16247;50.840;4.382;2023-04-03T07:23:05;19.95;;;11.38;;
29206;SDS011;16247;50.840;4.382;2023-04-03T07:26:15;15.40;;;9.93;;
29206;SDS011;16247;50.840;4.382;2023-04-03T07:29:02;15.18;;;11.45;;
29206;SDS011;16247;50.840;4.382;2023-04-03T07:31:30;18.42;;;10.82;;
29206;SDS011;16247;50.840;4.382;2023-04-03T07:40:49;15.43;;;10.70;;
29206;SDS011;16247;50.840;4.382;2023-04-03T07:49:52;19.77;;;10.52;;
29206;SDS011;16247;50.840;4.382;2023-04-03T07:52:32;12.57;;;8.98;;
29206;SDS011;16247;50.840;4.382;2023-04-03T07:58:33;11.88;;;9.32;;
29206;SDS011;16247;50.840;4.382;2023-04-03T08:04:48;15.00;;;10.27;;
29206;SDS011;16247;50.840;4.382;2023-04-03T08:10:53;12.98;;;9.45;;
29206;SDS011;16247;50.840;4.382;2023-04-03T08:13:38;11.70;;;8.55;;
29206;SDS011;16247;50.840;4.382;2023-04-03T08:17:03;14.43;;;9.57;;
29206;SDS011;16247;50.840;4.382;2023-04-03T08:22:40;11.65;;;8.50;;
29206;SDS011;16247;50.840;4.382;2023-04-03T08:28:03;10.18;;;8.55;;
29206;SDS011;16247;50.840;4.382;2023-04-03T08:36:46;14.80;;;9.10;;
29206;SDS011;16247;50.840;4.382;2023-04-03T08:45:43;8.88;;;7.07;;
29206;SDS011;16247;50.840;4.382;2023-04-03T08:48:43;12.20;;;7.68;;
29206;SDS011;16247;50.840;4.382;2023-04-03T08:51:49;12.27;;;7.18;;
29206;SDS011;16247;50.840;4.382;2023-04-03T09:03:10;12.20;;;6.07;;
29206;SDS011;16247;50.840;4.382;2023-04-03T09:06:13;11.45;;;6.13;;
29206;SDS011;16247;50.840;4.382;2023-04-03T09:12:44;11.35;;;5.55;;
29206;SDS011;16247;50.840;4.382;2023-04-03T09:32:12;5.22;;;3.85;;
29206;SDS011;16247;50.840;4.382;2023-04-03T12:01:42;9.43;;;2.10;;
29206;SDS011;16247;50.840;4.382;2023-04-03T12:04:16;4.30;;;1.55;;
29206;SDS011;16247;50.840;4.382;2023-04-03T12:10:14;6.20;;;2.95;;
29206;SDS011;16247;50.840;4.382;2023-04-03T12:22:43;3.38;;;1.73;;
29206;SDS011;16247;50.840;4.382;2023-04-03T13:40:58;83.72;;;38.17;;
29206;SDS011;16247;50.840;4.382;2023-04-03T13:43:46;13.77;;;6.05;;
29206;SDS011;16247;50.840;4.382;2023-04-03T13:48:38;4.70;;;1.58;;
29206;SDS011;16247;50.840;4.382;2023-04-03T13:53:57;6.40;;;1.50;;
29206;SDS011;16247;50.840;4.382;2023-04-03T15:37:57;3.10;;;1.02;;
29206;SDS011;16247;50.840;4.382;2023-04-03T15:40:25;4.60;;;1.45;;
29206;SDS011;16247;50.840;4.382;2023-04-03T15:42:52;1.83;;;1.33;;
29206;SDS011;16247;50.840;4.382;2023-04-03T15:45:20;2.33;;;1.70;;
29206;SDS011;16247;50.840;4.382;2023-04-03T15:47:46;4.53;;;1.55;;
29206;SDS011;16247;50.840;4.382;2023-04-03T15:50:15;3.50;;;1.65;;
29206;SDS011;16247;50.840;4.382;2023-04-03T15:52:42;5.00;;;2.13;;
29206;SDS011;16247;50.840;4.382;2023-04-03T15:57:37;4.85;;;2.75;;
29206;SDS011;16247;50.840;4.382;2023-04-03T16:00:04;6.28;;;2.20;;
29206;SDS011;16247;50.840;4.382;2023-04-03T16:02:32;4.05;;;1.50;;
29206;SDS011;16247;50.840;4.382;2023-04-03T16:05:00;3.63;;;1.77;;
29206;SDS011;16247;50.840;4.382;2023-04-03T16:07:25;3.92;;;1.55;;
29206;SDS011;16247;50.840;4.382;2023-04-03T16:09:54;4.43;;;1.92;;
29206;SDS011;16247;50.840;4.382;2023-04-03T16:12:21;4.50;;;2.03;;
29206;SDS011;16247;50.840;4.382;2023-04-03T16:14:51;3.63;;;1.60;;
29206;SDS011;16247;50.840;4.382;2023-04-03T16:17:17;4.22;;;2.10;;
29206;SDS011;16247;50.840;4.382;2023-04-03T16:19:45;3.88;;;1.98;;
29206;SDS011;16247;50.840;4.382;2023-04-03T16:24:41;4.00;;;2.00;;
29206;SDS011;16247;50.840;4.382;2023-04-03T16:27:24;3.35;;;1.83;;
29206;SDS011;16247;50.840;4.382;2023-04-03T16:29:57;3.28;;;2.10;;
29206;SDS011;16247;50.840;4.382;2023-04-03T16:32:23;4.22;;;2.30;;
29206;SDS011;16247;50.840;4.382;2023-04-03T16:37:31;6.78;;;2.17;;
29206;SDS011;16247;50.840;4.382;2023-04-03T16:39:57;6.93;;;1.88;;
29206;SDS011;16247;50.840;4.382;2023-04-03T16:42:26;9.05;;;2.10;;
29206;SDS011;16247;50.840;4.382;2023-04-03T16:45:10;2.97;;;1.50;;
29206;SDS011;16247;50.840;4.382;2023-04-03T16:47:36;2.85;;;1.60;;
29206;SDS011;16247;50.840;4.382;2023-04-03T16:50:02;6.20;;;2.20;;
29206;SDS011;16247;50.840;4.382;2023-04-03T16:52:30;3.22;;;2.15;;
29206;SDS011;16247;50.840;4.382;2023-04-03T16:55:13;5.18;;;2.03;;
29206;SDS011;16247;50.840;4.382;2023-04-03T16:57:40;3.10;;;1.88;;
29206;SDS011;16247;50.840;4.382;2023-04-03T17:00:20;6.95;;;2.08;;
29206;SDS011;16247;50.840;4.382;2023-04-03T17:03:07;4.13;;;1.73;;
29206;SDS011;16247;50.840;4.382;2023-04-03T17:05:34;6.93;;;2.00;;
29206;SDS011;16247;50.840;4.382;2023-04-03T17:08:01;6.63;;;1.88;;
29206;SDS011;16247;50.840;4.382;2023-04-03T17:10:27;4.38;;;1.63;;
29206;SDS011;16247;50.840;4.382;2023-04-03T17:12:55;10.93;;;2.30;;
29206;SDS011;16247;50.840;4.382;2023-04-03T17:15:22;4.90;;;2.10;;
29206;SDS011;16247;50.840;4.382;2023-04-03T17:17:48;8.85;;;2.55;;
29206;SDS011;16247;50.840;4.382;2023-04-03T17:20:18;6.78;;;2.20;;
29206;SDS011;16247;50.840;4.382;2023-04-03T17:22:49;6.65;;;2.20;;
29206;SDS011;16247;50.840;4.382;2023-04-03T17:25:17;5.82;;;1.55;;
29206;SDS011;16247;50.840;4.382;2023-04-03T17:27:44;5.05;;;2.00;;
29206;SDS011;16247;50.840;4.382;2023-04-03T17:30:10;5.45;;;2.55;;
29206;SDS011;16247;50.840;4.382;2023-04-03T17:32:39;5.78;;;2.08;;
29206;SDS011;16247;50.840;4.382;2023-04-03T17:35:06;5.57;;;2.00;;
29206;SDS011;16247;50.840;4.382;2023-04-03T17:37:42;4.35;;;2.20;;
29206;SDS011;16247;50.840;4.382;2023-04-03T17:40:08;9.38;;;2.97;;
29206;SDS011;16247;50.840;4.382;2023-04-03T17:42:38;3.53;;;1.98;;
29206;SDS011;16247;50.840;4.382;2023-04-03T17:45:05;8.35;;;2.60;;
29206;SDS011;16247;50.840;4.382;2023-04-03T17:47:40;6.00;;;1.50;;
29206;SDS011;16247;50.840;4.382;2023-04-03T17:50:07;4.60;;;1.77;;
29206;SDS011;16247;50.840;4.382;2023-04-03T17:55:02;5.75;;;2.00;;
29206;SDS011;16247;50.840;4.382;2023-04-03T17:57:29;3.17;;;2.00;;
29206;SDS011;16247;50.840;4.382;2023-04-03T17:59:55;6.72;;;2.25;;
29206;SDS011;16247;50.840;4.382;2023-04-03T18:02:22;4.65;;;1.80;;
29206;SDS011;16247;50.840;4.382;2023-04-03T18:04:50;5.85;;;1.80;;
29206;SDS011;16247;50.840;4.382;2023-04-03T18:07:20;4.70;;;2.30;;
29206;SDS011;16247;50.840;4.382;2023-04-03T18:09:48;4.70;;;2.17;;
29206;SDS011;16247;50.840;4.382;2023-04-03T18:12:16;4.85;;;2.45;;
29206;SDS011;16247;50.840;4.382;2023-04-03T18:14:44;5.10;;;2.38;;
29206;SDS011;16247;50.840;4.382;2023-04-03T18:17:20;5.32;;;2.30;;
29206;SDS011;16247;50.840;4.382;2023-04-03T18:19:46;4.03;;;2.60;;
29206;SDS011;16247;50.840;4.382;2023-04-03T18:22:16;5.72;;;1.88;;
29206;SDS011;16247;50.840;4.382;2023-04-03T18:24:47;3.08;;;1.70;;
29206;SDS011;16247;50.840;4.382;2023-04-03T18:27:22;5.88;;;1.85;;
29206;SDS011;16247;50.840;4.382;2023-04-03T18:30:06;7.97;;;2.00;;
29206;SDS011;16247;50.840;4.382;2023-04-03T18:32:34;4.78;;;2.33;;
29206;SDS011;16247;50.840;4.382;2023-04-03T18:37:39;4.10;;;1.98;;
29206;SDS011;16247;50.840;4.382;2023-04-03T18:40:06;4.15;;;1.75;;
29206;SDS011;16247;50.840;4.382;2023-04-03T18:42:38;6.18;;;1.77;;
29206;SDS011;16247;50.840;4.382;2023-04-03T18:48:12;4.45;;;2.00;;
29206;SDS011;16247;50.840;4.382;2023-04-03T18:50:41;3.13;;;1.88;;
29206;SDS011;16247;50.840;4.382;2023-04-03T18:53:08;5.15;;;1.70;;
29206;SDS011;16247;50.840;4.382;2023-04-03T18:55:40;6.60;;;2.92;;
29206;SDS011;16247;50.840;4.382;2023-04-03T18:58:08;6.43;;;2.35;;
29206;SDS011;16247;50.840;4.382;2023-04-03T19:00:35;6.35;;;2.17;;
29206;SDS011;16247;50.840;4.382;2023-04-03T19:06:11;4.85;;;1.70;;
29206;SDS011;16247;50.840;4.382;2023-04-03T19:12:03;6.18;;;2.13;;
29206;SDS011;16247;50.840;4.382;2023-04-03T19:14:32;7.72;;;2.83;;
29206;SDS011;16247;50.840;4.382;2023-04-03T19:17:17;6.25;;;2.47;;
29206;SDS011;16247;50.840;4.382;2023-04-03T19:20:03;7.28;;;3.17;;
29206;SDS011;16247;50.840;4.382;2023-04-03T19:22:29;7.18;;;2.42;;
29206;SDS011;16247;50.840;4.382;2023-04-03T19:25:03;4.90;;;2.33;;
29206;SDS011;16247;50.840;4.382;2023-04-03T19:27:30;3.28;;;2.03;;
29206;SDS011;16247;50.840;4.382;2023-04-03T19:30:13;8.60;;;2.55;;
29206;SDS011;16247;50.840;4.382;2023-04-03T19:32:40;4.77;;;2.47;;
29206;SDS011;16247;50.840;4.382;2023-04-03T19:35:06;6.85;;;2.70;;
29206;SDS011;16247;50.840;4.382;2023-04-03T19:37:33;8.50;;;2.70;;
29206;SDS011;16247;50.840;4.382;2023-04-03T19:39:58;6.78;;;2.65;;
29206;SDS011;16247;50.840;4.382;2023-04-03T19:42:26;7.05;;;2.42;;
29206;SDS011;16247;50.840;4.382;2023-04-03T19:44:54;4.28;;;2.25;;
29206;SDS011;16247;50.840;4.382;2023-04-03T19:47:43;4.03;;;2.10;;
29206;SDS011;16247;50.840;4.382;2023-04-03T19:50:10;6.93;;;2.22;;
29206;SDS011;16247;50.840;4.382;2023-04-03T19:52:38;4.50;;;2.10;;
29206;SDS011;16247;50.840;4.382;2023-04-03T19:56:09;5.80;;;2.00;;
29206;SDS011;16247;50.840;4.382;2023-04-03T19:58:41;7.32;;;2.15;;
29206;SDS011;16247;50.840;4.382;2023-04-03T20:01:33;3.72;;;1.60;;
29206;SDS011;16247;50.840;4.382;2023-04-03T20:04:00;6.43;;;2.40;;
29206;SDS011;16247;50.840;4.382;2023-04-03T20:06:30;6.15;;;1.88;;
29206;SDS011;16247;50.840;4.382;2023-04-03T20:08:57;9.25;;;2.20;;
29206;SDS011;16247;50.840;4.382;2023-04-03T20:11:33;5.10;;;2.05;;
29206;SDS011;16247;50.840;4.382;2023-04-03T20:14:02;5.47;;;2.63;;
29206;SDS011;16247;50.840;4.382;2023-04-03T20:19:00;5.57;;;3.00;;
29206;SDS011;16247;50.840;4.382;2023-04-03T20:23:56;5.55;;;2.30;;
29206;SDS011;16247;50.840;4.382;2023-04-03T20:26:26;7.33;;;2.63;;
29206;SDS011;16247;50.840;4.382;2023-04-03T20:29:15;9.18;;;2.10;;
29206;SDS011;16247;50.840;4.382;2023-04-03T20:32:15;3.97;;;2.25;;
29206;SDS011;16247;50.840;4.382;2023-04-03T20:34:55;5.97;;;2.33;;
29206;SDS011;16247;50.840;4.382;2023-04-03T20:37:31;8.07;;;2.75;;
29206;SDS011;16247;50.840;4.382;2023-04-03T20:42:42;7.85;;;2.65;;
29206;SDS011;16247;50.840;4.382;2023-04-03T20:45:19;6.07;;;2.92;;
29206;SDS011;16247;50.840;4.382;2023-04-03T20:48:08;5.72;;;2.30;;
29206;SDS011;16247;50.840;4.382;2023-04-03T20:50:35;3.72;;;2.40;;
29206;SDS011;16247;50.840;4.382;2023-04-03T20:53:04;6.03;;;2.95;;
29206;SDS011;16247;50.840;4.382;2023-04-03T20:55:35;4.88;;;2.78;;
29206;SDS011;16247;50.840;4.382;2023-04-03T20:58:28;6.33;;;3.00;;
29206;SDS011;16247;50.840;4.382;2023-04-03T21:04:33;8.27;;;1.88;;
29206;SDS011;16247;50.840;4.382;2023-04-03T21:19:44;6.97;;;2.55;;
29206;SDS011;16247;50.840;4.382;2023-04-03T21:22:11;6.45;;;2.70;;
29206;SDS011;16247;50.840;4.382;2023-04-03T21:24:48;5.97;;;2.53;;
29206;SDS011;16247;50.840;4.382;2023-04-03T21:27:17;5.32;;;2.30;;
29206;SDS011;16247;50.840;4.382;2023-04-03T21:32:19;5.40;;;2.10;;
29206;SDS011;16247;50.840;4.382;2023-04-03T21:34:50;6.18;;;2.88;;
29206;SDS011;16247;50.840;4.382;2023-04-03T21:37:27;5.88;;;1.98;;
29206;SDS011;16247;50.840;4.382;2023-04-03T21:39:54;6.55;;;2.45;;
29206;SDS011;16247;50.840;4.382;2023-04-03T21:42:23;7.70;;;2.50;;
29206;SDS011;16247;50.840;4.382;2023-04-03T21:44:53;4.22;;;1.83;;
29206;SDS011;16247;50.840;4.382;2023-04-03T21:47:24;5.43;;;2.35;;
29206;SDS011;16247;50.840;4.382;2023-04-03T21:50:03;5.72;;;2.35;;
29206;SDS011;16247;50.840;4.382;2023-04-03T21:57:57;11.85;;;2.70;;
29206;SDS011;16247;50.840;4.382;2023-04-03T22:03:01;5.90;;;2.33;;
29206;SDS011;16247;50.840;4.382;2023-04-03T22:51:55;5.15;;;2.33;;
29206;SDS011;16247;50.840;4.382;2023-04-03T22:54:22;5.18;;;2.13;;
29206;SDS011;16247;50.840;4.382;2023-04-03T22:56:51;10.48;;;2.38;;
29206;SDS011;16247;50.840;4.382;2023-04-03T22:59:17;4.38;;;2.00;;
29206;SDS011;16247;50.840;4.382;2023-04-03T23:01:48;6.85;;;2.03;;
29206;SDS011;16247;50.840;4.382;2023-04-03T23:04:21;5.05;;;1.75;;
29206;SDS011;16247;50.840;4.382;2023-04-03T23:09:27;7.85;;;2.08;;
29206;SDS011;16247;50.840;4.382;2023-04-03T23:14:36;6.90;;;3.10;;
29206;SDS011;16247;50.840;4.382;2023-04-03T23:17:14;5.03;;;2.17;;
29206;SDS011;16247;50.840;4.382;2023-04-03T23:19:48;5.20;;;2.35;;
29206;SDS011;16247;50.840;4.382;2023-04-03T23:25:34;5.88;;;1.85;;
